aviador You're here:

OIAA Decoded Metar

ABADAN in IRAN
Report Time2017-09-20 16:00:00
UTC Time2017-09-20 16:34:54
Flight Rules vfr VFR
Wind180° at 06 kt
W.Decomp.*RWY 14: 4.8 kt HW 3.6 kt RCW
W.Rank180° ranks 9
Current wind is below 180° avg. (6.4)
Visibility9999 m
Phenomena:N/A
Clouds:N/A
Expected CloudBase > 9,200 ft AGL from Temp-Dew spread
CeilingNone
Temp35°C (ISA +20)
Dew Point12°C (25% RH)
Heat Index33.7°C
AAT33.5°C
QNH1003 hPa
Density Alt2,838 ft
Elevation36 ft
Report Wrong Elevation
Raw Report
METAR OIAA 201600Z 18006KT CAVOK 35/12 Q1003=

Extra information for OIAA:More info

Metar Taf Metar & Taf Last 4 Metars F.Rules Stats Wind Profile Meteogram Temp Stats Airport Information Weather charts Add Link Nearby VenuesMetar ALERT Operation Metar Decoded Social comments